createdAt,value
2023-04-27T00:00:16.354Z,5.74
2023-04-27T00:03:19.124Z,5.75
2023-04-27T00:06:23.276Z,5.76
2023-04-27T00:09:26.210Z,5.75
2023-04-27T00:12:28.757Z,5.74
2023-04-27T00:15:31.292Z,5.73
2023-04-27T00:18:33.877Z,5.67
2023-04-27T00:21:37.760Z,5.57
2023-04-27T00:24:41.617Z,5.47
2023-04-27T00:27:44.175Z,5.37
2023-04-27T00:30:46.791Z,5.26
2023-04-27T00:33:49.354Z,5.22
2023-04-27T00:36:53.323Z,5.19
2023-04-27T00:39:55.887Z,5.20
2023-04-27T00:42:58.406Z,5.19
2023-04-27T00:46:01.090Z,5.16
2023-04-27T00:49:03.688Z,5.11
2023-04-27T00:52:07.655Z,5.09
2023-04-27T00:55:10.184Z,5.06
2023-04-27T00:58:12.762Z,5.02
2023-04-27T01:01:15.297Z,4.99
2023-04-27T01:04:18.029Z,4.94
2023-04-27T01:07:25.470Z,4.89
2023-04-27T01:10:28.423Z,4.86
2023-04-27T01:13:31.119Z,4.81
2023-04-27T01:16:33.788Z,4.80
2023-04-27T01:19:36.807Z,4.77
2023-04-27T01:22:40.696Z,4.75
2023-04-27T01:25:44.576Z,4.70
2023-04-27T01:28:47.107Z,4.62
2023-04-27T01:31:49.642Z,4.56
2023-04-27T01:34:52.200Z,4.51
2023-04-27T01:37:54.684Z,4.48
2023-04-27T01:41:01.928Z,4.44
2023-04-27T01:44:04.647Z,4.38
2023-04-27T01:47:07.209Z,4.31
2023-04-27T01:50:10.335Z,4.24
2023-04-27T01:53:12.897Z,4.17
2023-04-27T01:56:16.786Z,4.10
2023-04-27T01:59:19.321Z,4.02
2023-04-27T02:02:21.978Z,3.96
2023-04-27T02:05:24.625Z,3.90
2023-04-27T02:08:27.163Z,3.91
2023-04-27T02:11:31.848Z,3.90
2023-04-27T02:14:34.429Z,3.86
2023-04-27T02:17:37.019Z,3.78
2023-04-27T02:20:39.516Z,3.75
2023-04-27T02:23:42.014Z,3.72
2023-04-27T02:26:45.944Z,3.72
2023-04-27T02:29:48.446Z,3.67
2023-04-27T02:32:51.938Z,3.63
2023-04-27T02:35:54.445Z,3.59
2023-04-27T02:38:57.045Z,3.56
2023-04-27T02:42:01.420Z,3.57
2023-04-27T02:45:04.335Z,3.59
2023-04-27T02:48:07.561Z,3.61
2023-04-27T02:51:10.160Z,3.62
2023-04-27T02:54:12.713Z,3.62
2023-04-27T02:57:16.704Z,3.63
2023-04-27T03:00:19.770Z,3.64
2023-04-27T03:03:22.631Z,3.65
2023-04-27T03:06:25.557Z,3.64
2023-04-27T03:09:28.077Z,3.65
2023-04-27T03:12:31.982Z,3.65
2023-04-27T03:15:34.512Z,3.64
2023-04-27T03:18:37.037Z,3.62
2023-04-27T03:21:39.553Z,3.61
2023-04-27T03:24:42.370Z,3.59
2023-04-27T03:27:46.280Z,3.59
2023-04-27T03:30:48.810Z,3.56
2023-04-27T03:33:51.363Z,3.55
2023-04-27T03:36:54.003Z,3.52
2023-04-27T03:39:56.561Z,3.51
2023-04-27T03:43:00.924Z,3.49
2023-04-27T03:46:03.474Z,3.47
2023-04-27T03:49:06.248Z,3.45
2023-04-27T03:52:08.768Z,3.43
2023-04-27T03:55:11.468Z,3.41
2023-04-27T03:58:17.299Z,3.40
2023-04-27T04:01:19.842Z,3.38
2023-04-27T04:04:22.626Z,3.36
2023-04-27T04:07:25.250Z,3.33
2023-04-27T04:10:27.844Z,3.31
2023-04-27T04:13:31.769Z,3.30
2023-04-27T04:16:34.544Z,3.27
2023-04-27T04:19:37.092Z,3.27
2023-04-27T04:22:39.622Z,3.26
2023-04-27T04:25:42.260Z,3.25
2023-04-27T04:28:46.189Z,3.24
2023-04-27T04:31:48.774Z,3.23
2023-04-27T04:34:51.657Z,3.23
2023-04-27T04:37:54.305Z,3.27
2023-04-27T04:40:56.832Z,3.33
2023-04-27T04:44:00.717Z,3.42
2023-04-27T04:47:03.358Z,3.53
2023-04-27T04:50:06.794Z,3.68
2023-04-27T04:53:09.312Z,3.85
2023-04-27T04:56:12.368Z,4.05
2023-04-27T04:59:16.289Z,4.26
2023-04-27T05:02:18.917Z,4.41
2023-04-27T05:05:21.514Z,4.54
2023-04-27T05:08:24.174Z,4.72
2023-04-27T05:11:26.777Z,4.85
2023-04-27T05:14:30.720Z,4.88
2023-04-27T05:17:33.300Z,4.92
2023-04-27T05:20:35.912Z,4.99
2023-04-27T05:23:38.481Z,5.10
2023-04-27T05:26:41.208Z,5.13
2023-04-27T05:29:45.170Z,5.05
2023-04-27T05:32:47.738Z,4.96
2023-04-27T05:35:50.320Z,4.91
2023-04-27T05:38:52.832Z,4.88
2023-04-27T05:41:55.427Z,4.86
2023-04-27T05:44:59.317Z,4.82
2023-04-27T05:48:01.946Z,4.76
2023-04-27T05:51:04.860Z,4.70
2023-04-27T05:54:08.216Z,4.71
2023-04-27T05:57:10.723Z,4.69
2023-04-27T06:00:16.462Z,4.62
2023-04-27T06:03:19.253Z,4.56
2023-04-27T06:06:21.912Z,4.57
2023-04-27T06:09:24.425Z,4.53
2023-04-27T06:12:27.124Z,4.48
2023-04-27T06:15:31.063Z,4.50
2023-04-27T06:18:33.653Z,4.56
2023-04-27T06:21:36.334Z,4.65
2023-04-27T06:24:38.904Z,4.76
2023-04-27T06:27:41.408Z,4.92
2023-04-27T06:30:45.310Z,5.06
2023-04-27T06:33:47.848Z,5.24
2023-04-27T06:36:50.870Z,5.40
2023-04-27T06:39:53.385Z,5.48
2023-04-27T06:42:56.103Z,5.57
2023-04-27T06:46:00.102Z,5.66
2023-04-27T06:49:02.828Z,5.82
2023-04-27T06:52:06.189Z,5.92
2023-04-27T06:55:09.435Z,5.99
2023-04-27T06:58:12.020Z,6.12
2023-04-27T07:01:15.941Z,6.22
2023-04-27T07:04:18.622Z,6.29
2023-04-27T07:07:21.282Z,6.40
2023-04-27T07:10:23.806Z,6.45
2023-04-27T07:13:26.424Z,6.52
2023-04-27T07:16:30.500Z,6.62
2023-04-27T07:19:33.124Z,6.64
2023-04-27T07:22:35.660Z,6.73
2023-04-27T07:25:40.162Z,6.84
2023-04-27T07:28:42.752Z,7.01
2023-04-27T07:31:46.808Z,7.14
2023-04-27T07:34:53.954Z,7.27
2023-04-27T07:37:56.649Z,7.35
2023-04-27T07:40:59.533Z,7.37
2023-04-27T07:44:02.442Z,7.48
2023-04-27T07:47:06.405Z,7.55
2023-04-27T07:50:10.069Z,7.66
2023-04-27T07:53:12.677Z,7.63
2023-04-27T07:56:15.432Z,7.65
2023-04-27T07:59:17.945Z,7.54
2023-04-27T08:02:21.988Z,7.44
2023-04-27T08:05:24.964Z,7.31
2023-04-27T08:08:27.723Z,7.21
2023-04-27T08:11:30.294Z,7.14
2023-04-27T08:14:35.171Z,7.19
2023-04-27T08:17:41.145Z,7.36
2023-04-27T08:20:43.765Z,7.50
2023-04-27T08:23:46.408Z,7.62
2023-04-27T08:26:48.992Z,7.81
2023-04-27T08:29:51.573Z,7.94
2023-04-27T08:32:55.627Z,7.88
2023-04-27T08:35:58.192Z,7.71
2023-04-27T08:39:00.869Z,7.64
2023-04-27T08:42:04.005Z,7.70
2023-04-27T08:45:09.082Z,7.85
2023-04-27T08:48:13.015Z,8.08
2023-04-27T08:51:16.032Z,8.15
2023-04-27T08:54:18.697Z,8.26
2023-04-27T08:57:21.287Z,8.37
2023-04-27T09:00:25.394Z,8.52
2023-04-27T09:03:29.421Z,8.65
2023-04-27T09:06:32.620Z,8.75
2023-04-27T09:09:35.705Z,8.88
2023-04-27T09:12:38.215Z,8.92
2023-04-27T09:15:46.275Z,9.04
2023-04-27T09:18:51.659Z,9.12
2023-04-27T09:22:04.255Z,9.17
2023-04-27T09:25:08.016Z,9.29
2023-04-27T09:28:10.520Z,9.35
2023-04-27T09:31:13.156Z,9.39
2023-04-27T09:34:17.077Z,9.44
2023-04-27T09:37:19.991Z,9.57
2023-04-27T09:40:26.327Z,9.60
2023-04-27T09:43:29.789Z,9.55
2023-04-27T09:46:33.846Z,9.70
2023-04-27T09:49:38.299Z,9.71
2023-04-27T09:52:40.907Z,9.77
2023-04-27T09:55:44.959Z,9.88
2023-04-27T09:59:07.032Z,9.96
2023-04-27T10:02:23.501Z,10.09
2023-04-27T10:05:35.914Z,10.24
2023-04-27T10:08:39.353Z,10.27
2023-04-27T10:11:43.858Z,10.31
2023-04-27T10:14:53.098Z,10.39
2023-04-27T10:17:58.779Z,10.56
2023-04-27T10:21:12.070Z,10.67
2023-04-27T10:24:14.661Z,10.79
2023-04-27T10:27:19.838Z,10.84
2023-04-27T10:30:23.163Z,10.89
2023-04-27T10:33:26.061Z,10.81
2023-04-27T10:36:36.904Z,10.83
2023-04-27T10:39:48.679Z,10.93
2023-04-27T10:42:52.526Z,11.05
2023-04-27T10:45:55.594Z,11.07
2023-04-27T10:48:58.558Z,11.02
2023-04-27T10:52:04.783Z,11.18
2023-04-27T10:55:17.145Z,11.28
2023-04-27T10:58:23.716Z,11.38
2023-04-27T11:01:26.759Z,11.45
2023-04-27T11:04:41.790Z,11.54
2023-04-27T11:07:45.943Z,11.58
2023-04-27T11:10:50.089Z,11.70
2023-04-27T11:13:53.238Z,11.90
2023-04-27T11:16:55.942Z,11.99
2023-04-27T11:19:58.414Z,11.88
2023-04-27T11:23:02.348Z,11.72
2023-04-27T11:26:10.370Z,11.63
2023-04-27T11:29:13.877Z,11.80
2023-04-27T11:32:20.782Z,12.00
2023-04-27T11:35:33.599Z,11.87
2023-04-27T11:38:37.520Z,11.86
2023-04-27T11:41:45.671Z,11.95
2023-04-27T11:44:53.205Z,12.11
2023-04-27T11:47:55.817Z,12.13
2023-04-27T11:50:59.047Z,12.09
2023-04-27T11:54:06.822Z,12.13
2023-04-27T11:57:09.394Z,12.09
2023-04-27T12:00:14.764Z,12.08
2023-04-27T12:03:17.553Z,12.12
2023-04-27T12:06:32.793Z,12.05
2023-04-27T12:09:37.454Z,12.05
2023-04-27T12:12:39.971Z,12.12
2023-04-27T12:15:42.633Z,12.09
2023-04-27T12:18:45.260Z,11.97
2023-04-27T12:21:47.884Z,12.03
2023-04-27T12:24:51.949Z,12.03
2023-04-27T12:27:54.524Z,12.06
2023-04-27T12:30:57.777Z,12.12
2023-04-27T12:34:00.361Z,12.10
2023-04-27T12:37:02.912Z,12.01
2023-04-27T12:40:08.989Z,11.83
2023-04-27T12:43:12.685Z,11.76
2023-04-27T12:46:15.407Z,11.76
2023-04-27T12:49:18.025Z,11.93
2023-04-27T12:52:20.581Z,12.14
2023-04-27T12:55:32.951Z,12.27
2023-04-27T12:58:36.928Z,12.33
2023-04-27T13:01:39.499Z,12.49
2023-04-27T13:04:42.189Z,12.47
2023-04-27T13:07:44.874Z,12.48
2023-04-27T13:10:48.814Z,12.53
2023-04-27T13:13:51.461Z,12.63
2023-04-27T13:16:54.060Z,12.67
2023-04-27T13:19:56.645Z,12.77
2023-04-27T13:22:59.209Z,12.86
2023-04-27T13:26:03.166Z,12.97
2023-04-27T13:29:05.689Z,12.95
2023-04-27T13:32:08.207Z,12.96
2023-04-27T13:35:11.044Z,12.92
2023-04-27T13:38:13.649Z,12.91
2023-04-27T13:41:17.543Z,12.92
2023-04-27T13:44:20.209Z,12.89
2023-04-27T13:47:22.804Z,12.80
2023-04-27T13:50:25.772Z,12.74
2023-04-27T13:53:28.494Z,12.69
2023-04-27T13:56:32.410Z,12.63
2023-04-27T13:59:34.977Z,12.55
2023-04-27T14:02:37.654Z,12.50
2023-04-27T14:05:40.264Z,12.49
2023-04-27T14:08:42.793Z,12.43
2023-04-27T14:11:55.607Z,12.45
2023-04-27T14:14:59.237Z,12.51
2023-04-27T14:18:01.862Z,12.58
2023-04-27T14:21:04.960Z,12.64
2023-04-27T14:24:07.692Z,12.65
2023-04-27T14:27:11.609Z,12.67
2023-04-27T14:30:15.451Z,12.74
2023-04-27T14:33:18.142Z,12.82
2023-04-27T14:36:20.748Z,12.89
2023-04-27T14:39:23.287Z,12.94
2023-04-27T14:42:27.142Z,12.99
2023-04-27T14:45:39.775Z,13.00
2023-04-27T14:48:46.625Z,12.96
2023-04-27T14:51:49.186Z,12.85
2023-04-27T14:54:51.702Z,12.82
2023-04-27T14:57:55.565Z,12.80
2023-04-27T15:00:58.541Z,12.73
2023-04-27T15:04:01.710Z,12.60
2023-04-27T15:07:04.648Z,12.53
2023-04-27T15:10:08.487Z,12.52
2023-04-27T15:13:12.412Z,12.56
2023-04-27T15:16:14.934Z,12.60
2023-04-27T15:19:17.504Z,12.61
2023-04-27T15:22:20.053Z,12.57
2023-04-27T15:25:22.845Z,12.57
2023-04-27T15:28:26.686Z,12.61
2023-04-27T15:31:29.258Z,12.62
2023-04-27T15:34:31.984Z,12.57
2023-04-27T15:37:42.619Z,12.52
2023-04-27T15:40:50.432Z,12.48
2023-04-27T15:43:57.562Z,12.45
2023-04-27T15:47:00.336Z,12.37
2023-04-27T15:50:03.476Z,12.38
2023-04-27T15:53:06.226Z,12.38
2023-04-27T15:56:08.805Z,12.40
2023-04-27T15:59:13.043Z,12.44
2023-04-27T16:02:15.862Z,12.43
2023-04-27T16:05:18.458Z,12.48
2023-04-27T16:08:21.025Z,12.52
2023-04-27T16:11:23.605Z,12.49
2023-04-27T16:14:27.490Z,12.48
2023-04-27T16:17:32.189Z,12.46
2023-04-27T16:20:36.561Z,12.41
2023-04-27T16:23:39.261Z,12.33
2023-04-27T16:26:41.843Z,12.29
2023-04-27T16:29:45.802Z,12.26
2023-04-27T16:32:48.487Z,12.27
2023-04-27T16:35:51.074Z,12.28
2023-04-27T16:38:53.580Z,12.24
2023-04-27T16:41:56.169Z,12.22
2023-04-27T16:45:02.025Z,12.18
2023-04-27T16:48:04.724Z,12.14
2023-04-27T16:51:07.507Z,12.06
2023-04-27T16:54:10.497Z,12.05
2023-04-27T16:57:13.153Z,11.99
2023-04-27T17:00:17.868Z,11.98
2023-04-27T17:03:20.893Z,11.93
2023-04-27T17:06:25.194Z,11.93
2023-04-27T17:09:27.953Z,11.91
2023-04-27T17:12:30.682Z,11.92
2023-04-27T17:15:34.623Z,11.86
2023-04-27T17:18:37.238Z,11.78
2023-04-27T17:21:39.804Z,11.76
2023-04-27T17:24:42.311Z,11.73
2023-04-27T17:27:44.871Z,11.70
2023-04-27T17:30:48.792Z,11.64
2023-04-27T17:33:51.410Z,11.62
2023-04-27T17:36:53.944Z,11.61
2023-04-27T17:39:56.579Z,11.58
2023-04-27T17:43:00.003Z,11.55
2023-04-27T17:46:07.489Z,11.54
2023-04-27T17:49:10.013Z,11.51
2023-04-27T17:52:12.590Z,11.46
2023-04-27T17:55:15.172Z,11.42
2023-04-27T17:58:17.688Z,11.42
2023-04-27T18:01:21.616Z,11.43
2023-04-27T18:04:24.326Z,11.43
2023-04-27T18:07:26.900Z,11.40
2023-04-27T18:10:29.438Z,11.38
2023-04-27T18:13:32.501Z,11.36
2023-04-27T18:16:36.396Z,11.35
2023-04-27T18:19:39.034Z,11.34
2023-04-27T18:22:41.541Z,11.32
2023-04-27T18:25:44.056Z,11.31
2023-04-27T18:28:46.594Z,11.30
2023-04-27T18:31:50.477Z,11.25
2023-04-27T18:34:53.094Z,11.21
2023-04-27T18:37:55.710Z,11.22
2023-04-27T18:40:58.434Z,11.20
2023-04-27T18:44:04.522Z,11.21
2023-04-27T18:47:08.582Z,11.21
2023-04-27T18:50:13.020Z,11.18
2023-04-27T18:53:15.714Z,11.16
2023-04-27T18:56:18.235Z,11.14
2023-04-27T18:59:20.841Z,11.15
2023-04-27T19:02:25.866Z,11.14
2023-04-27T19:05:28.674Z,11.13
2023-04-27T19:08:31.222Z,11.09
2023-04-27T19:11:33.737Z,11.07
2023-04-27T19:14:36.591Z,11.06
2023-04-27T19:17:41.196Z,11.06
2023-04-27T19:20:43.860Z,11.09
2023-04-27T19:23:46.506Z,11.08
2023-04-27T19:26:49.265Z,11.07
2023-04-27T19:29:52.835Z,11.05
2023-04-27T19:32:56.762Z,11.03
2023-04-27T19:35:59.329Z,11.01
2023-04-27T19:39:01.837Z,10.99
2023-04-27T19:42:04.531Z,10.96
2023-04-27T19:45:08.216Z,10.96
2023-04-27T19:48:12.171Z,10.95
2023-04-27T19:51:14.801Z,10.96
2023-04-27T19:54:17.902Z,10.95
2023-04-27T19:57:21.074Z,10.91
2023-04-27T20:00:23.799Z,10.89
2023-04-27T20:03:27.943Z,10.88
2023-04-27T20:06:32.226Z,10.87
2023-04-27T20:09:34.752Z,10.85
2023-04-27T20:12:54.363Z,10.83
2023-04-27T20:15:59.134Z,10.80
2023-04-27T20:19:05.172Z,10.78
2023-04-27T20:22:07.773Z,10.76
2023-04-27T20:25:10.622Z,10.73
2023-04-27T20:28:13.289Z,10.69
2023-04-27T20:31:15.927Z,10.67
2023-04-27T20:34:19.885Z,10.62
2023-04-27T20:37:23.125Z,10.56
2023-04-27T20:40:25.657Z,10.54
2023-04-27T20:43:28.251Z,10.49
2023-04-27T20:46:31.122Z,10.45
2023-04-27T20:49:35.781Z,10.42
2023-04-27T20:52:38.578Z,10.38
2023-04-27T20:55:41.453Z,10.39
2023-04-27T20:58:44.008Z,10.40
2023-04-27T21:01:46.551Z,10.40
2023-04-27T21:04:50.611Z,10.36
2023-04-27T21:07:53.895Z,10.36
2023-04-27T21:10:57.209Z,10.36
2023-04-27T21:13:59.745Z,10.37
2023-04-27T21:17:02.336Z,10.36
2023-04-27T21:20:07.601Z,10.34
2023-04-27T21:23:10.375Z,10.31
2023-04-27T21:26:12.975Z,10.29
2023-04-27T21:29:15.497Z,10.28
2023-04-27T21:32:18.056Z,10.23
2023-04-27T21:35:21.997Z,10.24
2023-04-27T21:38:24.526Z,10.21
2023-04-27T21:41:27.206Z,10.19
2023-04-27T21:44:29.708Z,10.19
2023-04-27T21:47:32.307Z,10.17
2023-04-27T21:50:36.258Z,10.18
2023-04-27T21:53:38.809Z,10.15
2023-04-27T21:56:41.588Z,10.12
2023-04-27T21:59:44.086Z,10.13
2023-04-27T22:02:46.761Z,10.10
2023-04-27T22:05:50.695Z,10.09
2023-04-27T22:08:53.256Z,10.08
2023-04-27T22:11:55.877Z,10.03
2023-04-27T22:14:58.454Z,10.00
2023-04-27T22:18:00.977Z,9.97
2023-04-27T22:21:05.013Z,9.93
2023-04-27T22:24:07.718Z,9.88
2023-04-27T22:27:10.260Z,9.84
2023-04-27T22:30:14.463Z,9.83
2023-04-27T22:33:17.358Z,9.78
2023-04-27T22:36:21.544Z,9.78
2023-04-27T22:39:24.092Z,9.78
2023-04-27T22:42:27.192Z,9.78
2023-04-27T22:45:29.735Z,9.74
2023-04-27T22:48:32.840Z,9.73
2023-04-27T22:51:37.462Z,9.68
2023-04-27T22:54:40.000Z,9.68
2023-04-27T22:57:42.596Z,9.69
2023-04-27T23:00:45.814Z,9.69
2023-04-27T23:03:48.508Z,9.72
2023-04-27T23:06:53.713Z,9.71
2023-04-27T23:09:56.745Z,9.69
2023-04-27T23:13:01.859Z,9.67
2023-04-27T23:16:05.277Z,9.65
2023-04-27T23:19:07.772Z,9.63
2023-04-27T23:22:11.694Z,9.61
2023-04-27T23:25:14.257Z,9.61
2023-04-27T23:28:16.879Z,9.55
2023-04-27T23:31:19.455Z,9.49
2023-04-27T23:34:22.030Z,9.45
2023-04-27T23:37:25.953Z,9.41
2023-04-27T23:40:28.467Z,9.36
2023-04-27T23:43:31.585Z,9.31
2023-04-27T23:46:34.220Z,9.24
2023-04-27T23:49:37.028Z,9.21
2023-04-27T23:52:40.892Z,9.17
2023-04-27T23:55:43.431Z,9.13
2023-04-27T23:58:46.033Z,9.11
